LGW weather

London Gatwick Airport
London, England, United Kingdom

Public forecast

Using degrees Celsius for public forecast. Weather courtesy of forecast.io.

Current aviation weather report (METAR) for London Gatwick Airport

Retrieved 2020/08/05 18:50 UTC (15 minutes ago):

EGKK 051850Z 22009KT 9999 FEW032 21/14 Q1014

Aviation forecast (TAF) for London Gatwick Airport

Retrieved 2020/08/05 18:00 UTC (1 hour ago):

TAF EGKK 051653Z 0518/0624 20008KT 9999 FEW025 BECMG 0522/0601 BKN010 TEMPO 0601/0609 6000 -RADZ BKN006 PROB30 TEMPO 0603/0608 4000 RADZ BKN004 BECMG 0609/0612 SCT030